sensor_id;sensor_type;location;lat;lon;timestamp;P1;durP1;ratioP1;P2;durP2;ratioP2
1258;SDS011;619;51.472;6.628;2023-03-22T00:01:16;9.00;;;8.10;;
1258;SDS011;619;51.472;6.628;2023-03-22T00:03:47;9.20;;;8.30;;
1258;SDS011;619;51.472;6.628;2023-03-22T00:06:15;7.23;;;6.53;;
1258;SDS011;619;51.472;6.628;2023-03-22T00:08:46;8.03;;;6.77;;
1258;SDS011;619;51.472;6.628;2023-03-22T00:11:14;10.70;;;8.57;;
1258;SDS011;619;51.472;6.628;2023-03-22T00:13:40;9.27;;;7.57;;
1258;SDS011;619;51.472;6.628;2023-03-22T00:16:11;8.97;;;6.97;;
1258;SDS011;619;51.472;6.628;2023-03-22T00:18:40;10.00;;;7.67;;
1258;SDS011;619;51.472;6.628;2023-03-22T00:21:08;9.10;;;7.70;;
1258;SDS011;619;51.472;6.628;2023-03-22T00:23:39;8.83;;;7.27;;
1258;SDS011;619;51.472;6.628;2023-03-22T00:26:05;7.90;;;7.10;;
1258;SDS011;619;51.472;6.628;2023-03-22T00:28:34;9.67;;;6.90;;
1258;SDS011;619;51.472;6.628;2023-03-22T00:31:00;8.47;;;7.27;;
1258;SDS011;619;51.472;6.628;2023-03-22T00:33:29;9.33;;;8.03;;
1258;SDS011;619;51.472;6.628;2023-03-22T00:35:59;8.60;;;7.80;;
1258;SDS011;619;51.472;6.628;2023-03-22T00:38:32;9.83;;;6.80;;
1258;SDS011;619;51.472;6.628;2023-03-22T00:41:16;8.20;;;7.20;;
1258;SDS011;619;51.472;6.628;2023-03-22T00:43:44;11.77;;;8.00;;
1258;SDS011;619;51.472;6.628;2023-03-22T00:46:11;10.03;;;7.47;;
1258;SDS011;619;51.472;6.628;2023-03-22T00:48:40;9.63;;;7.30;;
1258;SDS011;619;51.472;6.628;2023-03-22T00:51:08;8.37;;;7.20;;
1258;SDS011;619;51.472;6.628;2023-03-22T00:53:34;10.00;;;7.47;;
1258;SDS011;619;51.472;6.628;2023-03-22T00:56:01;9.20;;;7.43;;
1258;SDS011;619;51.472;6.628;2023-03-22T00:58:30;7.93;;;6.83;;
1258;SDS011;619;51.472;6.628;2023-03-22T01:00:56;10.33;;;7.97;;
1258;SDS011;619;51.472;6.628;2023-03-22T01:03:22;8.93;;;7.60;;
1258;SDS011;619;51.472;6.628;2023-03-22T01:05:50;10.93;;;7.83;;
1258;SDS011;619;51.472;6.628;2023-03-22T01:08:20;9.60;;;7.40;;
1258;SDS011;619;51.472;6.628;2023-03-22T01:10:49;7.83;;;6.77;;
1258;SDS011;619;51.472;6.628;2023-03-22T01:13:14;8.80;;;6.47;;
1258;SDS011;619;51.472;6.628;2023-03-22T01:15:40;8.63;;;6.90;;
1258;SDS011;619;51.472;6.628;2023-03-22T01:18:06;7.90;;;6.60;;
1258;SDS011;619;51.472;6.628;2023-03-22T01:20:32;10.30;;;7.03;;
1258;SDS011;619;51.472;6.628;2023-03-22T01:22:58;10.40;;;8.17;;
1258;SDS011;619;51.472;6.628;2023-03-22T01:25:28;9.20;;;7.90;;
1258;SDS011;619;51.472;6.628;2023-03-22T01:27:53;8.93;;;8.00;;
1258;SDS011;619;51.472;6.628;2023-03-22T01:30:21;10.40;;;7.97;;
1258;SDS011;619;51.472;6.628;2023-03-22T01:32:51;8.00;;;6.90;;
1258;SDS011;619;51.472;6.628;2023-03-22T01:35:17;9.87;;;7.43;;
1258;SDS011;619;51.472;6.628;2023-03-22T01:37:43;9.27;;;7.83;;
1258;SDS011;619;51.472;6.628;2023-03-22T01:40:13;11.47;;;8.30;;
1258;SDS011;619;51.472;6.628;2023-03-22T01:42:44;8.07;;;7.30;;
1258;SDS011;619;51.472;6.628;2023-03-22T01:47:47;9.60;;;8.60;;
1258;SDS011;619;51.472;6.628;2023-03-22T01:50:28;8.83;;;7.97;;
1258;SDS011;619;51.472;6.628;2023-03-22T01:52:56;8.60;;;7.73;;
1258;SDS011;619;51.472;6.628;2023-03-22T01:55:24;8.90;;;8.00;;
1258;SDS011;619;51.472;6.628;2023-03-22T01:57:52;8.90;;;8.10;;
1258;SDS011;619;51.472;6.628;2023-03-22T02:00:20;9.30;;;8.40;;
1258;SDS011;619;51.472;6.628;2023-03-22T02:02:47;9.37;;;6.83;;
1258;SDS011;619;51.472;6.628;2023-03-22T02:05:17;8.80;;;8.00;;
1258;SDS011;619;51.472;6.628;2023-03-22T02:07:48;9.17;;;8.40;;
1258;SDS011;619;51.472;6.628;2023-03-22T02:10:18;8.47;;;7.67;;
1258;SDS011;619;51.472;6.628;2023-03-22T02:15:36;10.40;;;8.53;;
1258;SDS011;619;51.472;6.628;2023-03-22T02:45:33;9.53;;;7.70;;
1258;SDS011;619;51.472;6.628;2023-03-22T02:48:11;8.33;;;7.57;;
1258;SDS011;619;51.472;6.628;2023-03-22T02:50:52;9.93;;;7.67;;
1258;SDS011;619;51.472;6.628;2023-03-22T02:53:31;8.27;;;7.33;;
1258;SDS011;619;51.472;6.628;2023-03-22T02:58:55;8.67;;;7.77;;
1258;SDS011;619;51.472;6.628;2023-03-22T03:01:32;8.60;;;6.43;;
1258;SDS011;619;51.472;6.628;2023-03-22T03:04:21;8.63;;;7.80;;
1258;SDS011;619;51.472;6.628;2023-03-22T03:06:53;11.40;;;7.73;;
1258;SDS011;619;51.472;6.628;2023-03-22T03:09:22;8.03;;;7.13;;
1258;SDS011;619;51.472;6.628;2023-03-22T03:11:50;8.17;;;6.43;;
1258;SDS011;619;51.472;6.628;2023-03-22T03:14:24;7.50;;;6.80;;
1258;SDS011;619;51.472;6.628;2023-03-22T03:17:01;13.67;;;6.70;;
1258;SDS011;619;51.472;6.628;2023-03-22T03:19:41;8.93;;;6.90;;
1258;SDS011;619;51.472;6.628;2023-03-22T03:24:56;7.63;;;6.43;;
1258;SDS011;619;51.472;6.628;2023-03-22T03:30:23;8.80;;;6.50;;
1258;SDS011;619;51.472;6.628;2023-03-22T03:32:57;6.13;;;5.63;;
1258;SDS011;619;51.472;6.628;2023-03-22T03:35:32;6.70;;;6.00;;
1258;SDS011;619;51.472;6.628;2023-03-22T03:38:14;8.13;;;5.90;;
1258;SDS011;619;51.472;6.628;2023-03-22T03:40:49;9.30;;;5.80;;
1258;SDS011;619;51.472;6.628;2023-03-22T03:43:22;8.40;;;6.13;;
1258;SDS011;619;51.472;6.628;2023-03-22T03:45:51;8.77;;;6.23;;
1258;SDS011;619;51.472;6.628;2023-03-22T03:48:23;7.70;;;5.67;;
1258;SDS011;619;51.472;6.628;2023-03-22T03:50:52;6.83;;;6.10;;
1258;SDS011;619;51.472;6.628;2023-03-22T03:53:22;6.90;;;5.90;;
1258;SDS011;619;51.472;6.628;2023-03-22T03:55:50;5.90;;;5.30;;
1258;SDS011;619;51.472;6.628;2023-03-22T03:58:16;7.00;;;5.37;;
1258;SDS011;619;51.472;6.628;2023-03-22T04:00:42;8.00;;;5.30;;
1258;SDS011;619;51.472;6.628;2023-03-22T04:03:12;7.60;;;5.63;;
1258;SDS011;619;51.472;6.628;2023-03-22T04:05:40;7.50;;;5.60;;
1258;SDS011;619;51.472;6.628;2023-03-22T04:08:06;6.03;;;4.93;;
1258;SDS011;619;51.472;6.628;2023-03-22T04:10:32;8.00;;;5.03;;
1258;SDS011;619;51.472;6.628;2023-03-22T04:13:00;4.90;;;4.40;;
1258;SDS011;619;51.472;6.628;2023-03-22T04:15:26;7.47;;;5.50;;
1258;SDS011;619;51.472;6.628;2023-03-22T04:17:52;8.57;;;5.47;;
1258;SDS011;619;51.472;6.628;2023-03-22T04:20:22;9.40;;;5.40;;
1258;SDS011;619;51.472;6.628;2023-03-22T04:22:52;8.50;;;5.13;;
1258;SDS011;619;51.472;6.628;2023-03-22T04:25:22;10.50;;;4.80;;
1258;SDS011;619;51.472;6.628;2023-03-22T04:27:47;6.67;;;4.73;;
1258;SDS011;619;51.472;6.628;2023-03-22T04:30:15;6.90;;;5.23;;
1258;SDS011;619;51.472;6.628;2023-03-22T04:32:44;5.73;;;4.97;;
1258;SDS011;619;51.472;6.628;2023-03-22T04:35:11;8.67;;;5.10;;
1258;SDS011;619;51.472;6.628;2023-03-22T04:37:36;6.53;;;5.50;;
1258;SDS011;619;51.472;6.628;2023-03-22T04:40:02;6.23;;;4.97;;
1258;SDS011;619;51.472;6.628;2023-03-22T04:42:32;7.67;;;5.10;;
1258;SDS011;619;51.472;6.628;2023-03-22T04:44:58;8.10;;;4.87;;
1258;SDS011;619;51.472;6.628;2023-03-22T04:47:24;9.53;;;4.93;;
1258;SDS011;619;51.472;6.628;2023-03-22T04:49:52;7.20;;;5.03;;
1258;SDS011;619;51.472;6.628;2023-03-22T04:52:20;6.70;;;5.07;;
1258;SDS011;619;51.472;6.628;2023-03-22T04:54:46;5.13;;;4.40;;
1258;SDS011;619;51.472;6.628;2023-03-22T04:57:11;9.70;;;4.97;;
1258;SDS011;619;51.472;6.628;2023-03-22T04:59:41;9.00;;;5.13;;
1258;SDS011;619;51.472;6.628;2023-03-22T05:02:09;8.23;;;4.83;;
1258;SDS011;619;51.472;6.628;2023-03-22T05:04:37;7.80;;;4.33;;
1258;SDS011;619;51.472;6.628;2023-03-22T05:07:05;5.83;;;4.37;;
1258;SDS011;619;51.472;6.628;2023-03-22T05:09:31;5.70;;;4.73;;
1258;SDS011;619;51.472;6.628;2023-03-22T05:11:58;8.80;;;5.97;;
1258;SDS011;619;51.472;6.628;2023-03-22T05:14:26;4.93;;;4.20;;
1258;SDS011;619;51.472;6.628;2023-03-22T05:16:52;10.40;;;4.87;;
1258;SDS011;619;51.472;6.628;2023-03-22T05:19:20;5.40;;;4.53;;
1258;SDS011;619;51.472;6.628;2023-03-22T05:21:46;5.43;;;4.87;;
1258;SDS011;619;51.472;6.628;2023-03-22T05:24:21;6.43;;;4.90;;
1258;SDS011;619;51.472;6.628;2023-03-22T05:26:49;6.00;;;4.03;;
1258;SDS011;619;51.472;6.628;2023-03-22T05:29:18;5.93;;;4.50;;
1258;SDS011;619;51.472;6.628;2023-03-22T05:31:44;6.40;;;3.77;;
1258;SDS011;619;51.472;6.628;2023-03-22T05:34:12;8.40;;;4.53;;
1258;SDS011;619;51.472;6.628;2023-03-22T05:36:38;5.30;;;3.93;;
1258;SDS011;619;51.472;6.628;2023-03-22T05:39:05;5.77;;;3.77;;
1258;SDS011;619;51.472;6.628;2023-03-22T05:41:31;7.37;;;3.90;;
1258;SDS011;619;51.472;6.628;2023-03-22T05:43:59;4.47;;;3.93;;
1258;SDS011;619;51.472;6.628;2023-03-22T05:46:27;5.70;;;3.60;;
1258;SDS011;619;51.472;6.628;2023-03-22T05:48:53;6.63;;;4.07;;
1258;SDS011;619;51.472;6.628;2023-03-22T05:51:20;6.03;;;3.63;;
1258;SDS011;619;51.472;6.628;2023-03-22T05:53:50;4.80;;;4.07;;
1258;SDS011;619;51.472;6.628;2023-03-22T05:56:18;4.50;;;4.10;;
1258;SDS011;619;51.472;6.628;2023-03-22T05:58:48;8.97;;;4.57;;
1258;SDS011;619;51.472;6.628;2023-03-22T06:01:16;5.90;;;4.37;;
1258;SDS011;619;51.472;6.628;2023-03-22T06:03:41;10.13;;;4.30;;
1258;SDS011;619;51.472;6.628;2023-03-22T06:06:07;9.13;;;4.17;;
1258;SDS011;619;51.472;6.628;2023-03-22T06:08:37;6.53;;;3.63;;
1258;SDS011;619;51.472;6.628;2023-03-22T06:11:03;6.83;;;4.30;;
1258;SDS011;619;51.472;6.628;2023-03-22T06:13:32;8.00;;;4.23;;
1258;SDS011;619;51.472;6.628;2023-03-22T06:15:58;11.63;;;4.33;;
1258;SDS011;619;51.472;6.628;2023-03-22T06:18:25;4.70;;;3.43;;
1258;SDS011;619;51.472;6.628;2023-03-22T06:20:51;7.30;;;4.40;;
1258;SDS011;619;51.472;6.628;2023-03-22T06:23:17;8.70;;;3.50;;
1258;SDS011;619;51.472;6.628;2023-03-22T06:25:47;5.43;;;3.70;;
1258;SDS011;619;51.472;6.628;2023-03-22T06:28:13;5.53;;;4.40;;
1258;SDS011;619;51.472;6.628;2023-03-22T06:30:38;9.50;;;4.07;;
1258;SDS011;619;51.472;6.628;2023-03-22T06:33:04;5.03;;;3.60;;
1258;SDS011;619;51.472;6.628;2023-03-22T06:35:31;7.70;;;4.27;;
1258;SDS011;619;51.472;6.628;2023-03-22T06:37:59;7.33;;;4.23;;
1258;SDS011;619;51.472;6.628;2023-03-22T06:40:27;6.53;;;3.70;;
1258;SDS011;619;51.472;6.628;2023-03-22T06:42:55;8.80;;;4.40;;
1258;SDS011;619;51.472;6.628;2023-03-22T06:45:23;9.70;;;3.40;;
1258;SDS011;619;51.472;6.628;2023-03-22T06:47:49;7.37;;;3.57;;
1258;SDS011;619;51.472;6.628;2023-03-22T06:50:14;7.87;;;3.27;;
1258;SDS011;619;51.472;6.628;2023-03-22T06:52:40;10.63;;;3.80;;
1258;SDS011;619;51.472;6.628;2023-03-22T06:55:06;8.30;;;3.60;;
1258;SDS011;619;51.472;6.628;2023-03-22T06:57:32;6.23;;;3.80;;
1258;SDS011;619;51.472;6.628;2023-03-22T06:59:57;5.00;;;3.70;;
1258;SDS011;619;51.472;6.628;2023-03-22T07:02:25;8.10;;;3.57;;
1258;SDS011;619;51.472;6.628;2023-03-22T07:04:53;7.50;;;3.17;;
1258;SDS011;619;51.472;6.628;2023-03-22T07:07:21;11.03;;;3.13;;
1258;SDS011;619;51.472;6.628;2023-03-22T07:09:49;10.20;;;4.03;;
1258;SDS011;619;51.472;6.628;2023-03-22T07:12:17;8.13;;;3.13;;
1258;SDS011;619;51.472;6.628;2023-03-22T07:14:42;6.40;;;3.63;;
1258;SDS011;619;51.472;6.628;2023-03-22T07:17:09;7.73;;;3.33;;
1258;SDS011;619;51.472;6.628;2023-03-22T07:19:36;9.03;;;3.40;;
1258;SDS011;619;51.472;6.628;2023-03-22T07:22:02;8.97;;;2.80;;
1258;SDS011;619;51.472;6.628;2023-03-22T07:24:29;5.37;;;2.67;;
1258;SDS011;619;51.472;6.628;2023-03-22T07:26:58;7.27;;;3.07;;
1258;SDS011;619;51.472;6.628;2023-03-22T07:29:23;7.50;;;2.83;;
1258;SDS011;619;51.472;6.628;2023-03-22T07:31:52;4.77;;;2.70;;
1258;SDS011;619;51.472;6.628;2023-03-22T07:34:17;7.80;;;3.43;;
1258;SDS011;619;51.472;6.628;2023-03-22T07:36:47;5.10;;;2.47;;
1258;SDS011;619;51.472;6.628;2023-03-22T07:39:13;4.23;;;2.57;;
1258;SDS011;619;51.472;6.628;2023-03-22T07:41:39;7.10;;;3.00;;
1258;SDS011;619;51.472;6.628;2023-03-22T07:44:07;3.47;;;2.10;;
1258;SDS011;619;51.472;6.628;2023-03-22T07:46:38;7.23;;;2.53;;
1258;SDS011;619;51.472;6.628;2023-03-22T07:49:03;6.27;;;2.27;;
1258;SDS011;619;51.472;6.628;2023-03-22T07:51:29;6.23;;;2.60;;
1258;SDS011;619;51.472;6.628;2023-03-22T07:53:55;8.73;;;3.30;;
1258;SDS011;619;51.472;6.628;2023-03-22T07:56:20;3.80;;;2.33;;
1258;SDS011;619;51.472;6.628;2023-03-22T07:58:46;9.07;;;2.60;;
1258;SDS011;619;51.472;6.628;2023-03-22T08:01:11;9.53;;;2.80;;
1258;SDS011;619;51.472;6.628;2023-03-22T08:03:39;9.67;;;2.77;;
1258;SDS011;619;51.472;6.628;2023-03-22T08:06:06;6.03;;;2.70;;
1258;SDS011;619;51.472;6.628;2023-03-22T08:08:33;7.30;;;2.50;;
1258;SDS011;619;51.472;6.628;2023-03-22T08:11:02;5.47;;;2.80;;
1258;SDS011;619;51.472;6.628;2023-03-22T08:13:28;3.40;;;2.00;;
1258;SDS011;619;51.472;6.628;2023-03-22T08:15:54;4.97;;;2.80;;
1258;SDS011;619;51.472;6.628;2023-03-22T08:18:19;4.70;;;2.00;;
1258;SDS011;619;51.472;6.628;2023-03-22T08:20:54;3.80;;;2.57;;
1258;SDS011;619;51.472;6.628;2023-03-22T08:23:25;8.20;;;2.40;;
1258;SDS011;619;51.472;6.628;2023-03-22T08:25:56;6.50;;;2.40;;
1258;SDS011;619;51.472;6.628;2023-03-22T08:28:22;5.20;;;2.87;;
1258;SDS011;619;51.472;6.628;2023-03-22T08:30:50;9.03;;;2.60;;
1258;SDS011;619;51.472;6.628;2023-03-22T08:33:23;4.20;;;2.00;;
1258;SDS011;619;51.472;6.628;2023-03-22T08:36:02;7.20;;;2.40;;
1258;SDS011;619;51.472;6.628;2023-03-22T08:38:36;8.87;;;2.67;;
1258;SDS011;619;51.472;6.628;2023-03-22T08:41:04;5.30;;;2.47;;
1258;SDS011;619;51.472;6.628;2023-03-22T08:43:35;4.57;;;2.33;;
1258;SDS011;619;51.472;6.628;2023-03-22T08:46:03;4.53;;;2.13;;
1258;SDS011;619;51.472;6.628;2023-03-22T08:48:29;5.00;;;2.07;;
1258;SDS011;619;51.472;6.628;2023-03-22T08:51:04;3.60;;;2.27;;
1258;SDS011;619;51.472;6.628;2023-03-22T08:53:35;7.93;;;3.33;;
1258;SDS011;619;51.472;6.628;2023-03-22T08:56:04;5.30;;;2.53;;
1258;SDS011;619;51.472;6.628;2023-03-22T08:58:30;3.73;;;2.70;;
1258;SDS011;619;51.472;6.628;2023-03-22T09:00:55;8.90;;;3.20;;
1258;SDS011;619;51.472;6.628;2023-03-22T09:03:23;6.20;;;2.80;;
1258;SDS011;619;51.472;6.628;2023-03-22T09:05:56;4.83;;;1.93;;
1258;SDS011;619;51.472;6.628;2023-03-22T09:08:24;3.47;;;1.90;;
1258;SDS011;619;51.472;6.628;2023-03-22T09:10:50;5.20;;;2.33;;
1258;SDS011;619;51.472;6.628;2023-03-22T09:13:18;5.00;;;2.17;;
1258;SDS011;619;51.472;6.628;2023-03-22T09:15:44;4.10;;;2.40;;
1258;SDS011;619;51.472;6.628;2023-03-22T09:18:09;4.80;;;2.07;;
1258;SDS011;619;51.472;6.628;2023-03-22T09:20:36;9.80;;;2.37;;
1258;SDS011;619;51.472;6.628;2023-03-22T09:23:02;3.70;;;2.10;;
1258;SDS011;619;51.472;6.628;2023-03-22T09:25:28;5.53;;;2.30;;
1258;SDS011;619;51.472;6.628;2023-03-22T09:27:56;4.60;;;2.27;;
1258;SDS011;619;51.472;6.628;2023-03-22T09:30:21;5.77;;;1.93;;
1258;SDS011;619;51.472;6.628;2023-03-22T09:32:47;7.80;;;2.90;;
1258;SDS011;619;51.472;6.628;2023-03-22T09:35:15;4.50;;;2.23;;
1258;SDS011;619;51.472;6.628;2023-03-22T09:37:43;6.03;;;2.40;;
1258;SDS011;619;51.472;6.628;2023-03-22T09:40:09;2.87;;;2.10;;
1258;SDS011;619;51.472;6.628;2023-03-22T09:45:12;2.80;;;1.90;;
1258;SDS011;619;51.472;6.628;2023-03-22T09:47:43;7.10;;;2.70;;
1258;SDS011;619;51.472;6.628;2023-03-22T09:52:46;3.40;;;1.80;;
1258;SDS011;619;51.472;6.628;2023-03-22T10:06:49;6.40;;;1.87;;
1258;SDS011;619;51.472;6.628;2023-03-22T10:09:20;6.13;;;2.03;;
1258;SDS011;619;51.472;6.628;2023-03-22T10:12:58;4.20;;;1.67;;
1258;SDS011;619;51.472;6.628;2023-03-22T10:14:59;6.27;;;1.60;;
1258;SDS011;619;51.472;6.628;2023-03-22T10:17:33;4.67;;;2.30;;
1258;SDS011;619;51.472;6.628;2023-03-22T10:20:23;4.60;;;2.27;;
1258;SDS011;619;51.472;6.628;2023-03-22T10:23:19;5.60;;;1.90;;
1258;SDS011;619;51.472;6.628;2023-03-22T10:25:59;7.13;;;2.30;;
1258;SDS011;619;51.472;6.628;2023-03-22T10:28:30;6.30;;;2.63;;
1258;SDS011;619;51.472;6.628;2023-03-22T10:31:08;6.50;;;2.00;;
1258;SDS011;619;51.472;6.628;2023-03-22T10:33:44;5.23;;;2.10;;
1258;SDS011;619;51.472;6.628;2023-03-22T10:36:19;3.90;;;1.83;;
1258;SDS011;619;51.472;6.628;2023-03-22T10:38:51;8.43;;;2.20;;
1258;SDS011;619;51.472;6.628;2023-03-22T10:41:20;4.13;;;1.90;;
1258;SDS011;619;51.472;6.628;2023-03-22T10:43:50;5.53;;;2.70;;
1258;SDS011;619;51.472;6.628;2023-03-22T10:46:22;3.63;;;1.70;;
1258;SDS011;619;51.472;6.628;2023-03-22T10:48:55;5.50;;;2.10;;
1258;SDS011;619;51.472;6.628;2023-03-22T10:54:03;9.33;;;2.97;;
1258;SDS011;619;51.472;6.628;2023-03-22T10:56:29;4.40;;;2.33;;
1258;SDS011;619;51.472;6.628;2023-03-22T10:58:57;4.57;;;2.20;;
1258;SDS011;619;51.472;6.628;2023-03-22T11:04:14;4.83;;;1.80;;
1258;SDS011;619;51.472;6.628;2023-03-22T11:06:50;5.60;;;2.47;;
1258;SDS011;619;51.472;6.628;2023-03-22T11:09:23;3.37;;;1.80;;
1258;SDS011;619;51.472;6.628;2023-03-22T11:12:08;4.83;;;2.10;;
1258;SDS011;619;51.472;6.628;2023-03-22T11:14:43;5.23;;;2.23;;
1258;SDS011;619;51.472;6.628;2023-03-22T11:17:13;10.10;;;2.40;;
1258;SDS011;619;51.472;6.628;2023-03-22T11:19:51;4.60;;;2.40;;
1258;SDS011;619;51.472;6.628;2023-03-22T11:22:22;8.97;;;2.53;;
1258;SDS011;619;51.472;6.628;2023-03-22T11:24:48;11.27;;;2.77;;
1258;SDS011;619;51.472;6.628;2023-03-22T11:29:50;6.40;;;2.27;;
1258;SDS011;619;51.472;6.628;2023-03-22T11:32:36;4.87;;;1.80;;
1258;SDS011;619;51.472;6.628;2023-03-22T11:35:10;5.50;;;2.30;;
1258;SDS011;619;51.472;6.628;2023-03-22T11:37:54;6.73;;;2.07;;
1258;SDS011;619;51.472;6.628;2023-03-22T11:40:27;5.63;;;1.93;;
1258;SDS011;619;51.472;6.628;2023-03-22T11:43:18;7.30;;;3.03;;
1258;SDS011;619;51.472;6.628;2023-03-22T11:45:47;7.60;;;2.50;;
1258;SDS011;619;51.472;6.628;2023-03-22T11:48:16;5.03;;;2.10;;
1258;SDS011;619;51.472;6.628;2023-03-22T11:50:45;6.90;;;2.27;;
1258;SDS011;619;51.472;6.628;2023-03-22T11:53:17;3.67;;;2.30;;
1258;SDS011;619;51.472;6.628;2023-03-22T11:55:47;4.93;;;1.90;;
1258;SDS011;619;51.472;6.628;2023-03-22T11:58:27;5.13;;;2.50;;
1258;SDS011;619;51.472;6.628;2023-03-22T12:00:54;5.13;;;2.40;;
1258;SDS011;619;51.472;6.628;2023-03-22T12:03:28;2.97;;;1.70;;
1258;SDS011;619;51.472;6.628;2023-03-22T12:05:58;7.07;;;2.10;;
1258;SDS011;619;51.472;6.628;2023-03-22T12:08:38;9.30;;;2.20;;
1258;SDS011;619;51.472;6.628;2023-03-22T12:12:08;4.83;;;1.80;;
1258;SDS011;619;51.472;6.628;2023-03-22T12:14:06;6.33;;;2.13;;
1258;SDS011;619;51.472;6.628;2023-03-22T12:16:44;6.50;;;2.27;;
1258;SDS011;619;51.472;6.628;2023-03-22T12:22:10;3.80;;;1.80;;
1258;SDS011;619;51.472;6.628;2023-03-22T12:24:42;5.57;;;2.07;;
1258;SDS011;619;51.472;6.628;2023-03-22T12:27:12;4.80;;;2.00;;
1258;SDS011;619;51.472;6.628;2023-03-22T12:30:10;5.13;;;2.17;;
1258;SDS011;619;51.472;6.628;2023-03-22T12:33:01;5.10;;;2.33;;
1258;SDS011;619;51.472;6.628;2023-03-22T12:35:33;4.60;;;1.90;;
1258;SDS011;619;51.472;6.628;2023-03-22T12:41:04;6.47;;;2.03;;
1258;SDS011;619;51.472;6.628;2023-03-22T12:46:47;4.23;;;1.60;;
1258;SDS011;619;51.472;6.628;2023-03-22T12:52:20;3.23;;;1.60;;
1258;SDS011;619;51.472;6.628;2023-03-22T12:54:47;4.33;;;2.00;;
1258;SDS011;619;51.472;6.628;2023-03-22T12:57:16;5.67;;;1.83;;
1258;SDS011;619;51.472;6.628;2023-03-22T12:59:43;5.90;;;1.50;;
1258;SDS011;619;51.472;6.628;2023-03-22T13:02:14;6.30;;;2.10;;
1258;SDS011;619;51.472;6.628;2023-03-22T13:09:39;2.77;;;1.13;;
1258;SDS011;619;51.472;6.628;2023-03-22T13:19:53;2.93;;;1.33;;
1258;SDS011;619;51.472;6.628;2023-03-22T13:35:36;4.87;;;2.10;;
1258;SDS011;619;51.472;6.628;2023-03-22T13:38:08;5.13;;;1.77;;
1258;SDS011;619;51.472;6.628;2023-03-22T13:43:26;2.93;;;1.40;;
1258;SDS011;619;51.472;6.628;2023-03-22T13:51:20;2.93;;;1.40;;
1258;SDS011;619;51.472;6.628;2023-03-22T13:59:07;4.90;;;1.40;;
1258;SDS011;619;51.472;6.628;2023-03-22T14:01:46;5.60;;;2.00;;
1258;SDS011;619;51.472;6.628;2023-03-22T14:04:16;4.40;;;2.07;;
1258;SDS011;619;51.472;6.628;2023-03-22T14:09:33;2.10;;;1.40;;
1258;SDS011;619;51.472;6.628;2023-03-22T14:12:20;5.70;;;1.97;;
1258;SDS011;619;51.472;6.628;2023-03-22T14:15:01;4.30;;;1.73;;
1258;SDS011;619;51.472;6.628;2023-03-22T14:17:33;5.57;;;2.07;;
1258;SDS011;619;51.472;6.628;2023-03-22T14:20:06;8.30;;;2.17;;
1258;SDS011;619;51.472;6.628;2023-03-22T14:22:36;6.93;;;2.03;;
1258;SDS011;619;51.472;6.628;2023-03-22T14:25:11;5.70;;;2.37;;
1258;SDS011;619;51.472;6.628;2023-03-22T14:27:43;2.80;;;1.90;;
1258;SDS011;619;51.472;6.628;2023-03-22T14:33:11;3.13;;;1.60;;
1258;SDS011;619;51.472;6.628;2023-03-22T14:35:45;7.73;;;2.17;;
1258;SDS011;619;51.472;6.628;2023-03-22T14:38:34;5.20;;;2.23;;
1258;SDS011;619;51.472;6.628;2023-03-22T14:43:35;3.70;;;2.10;;
1258;SDS011;619;51.472;6.628;2023-03-22T14:48:30;7.57;;;2.00;;
1258;SDS011;619;51.472;6.628;2023-03-22T14:50:57;2.50;;;1.87;;
1258;SDS011;619;51.472;6.628;2023-03-22T14:53:37;4.20;;;2.57;;
1258;SDS011;619;51.472;6.628;2023-03-22T14:56:09;5.63;;;1.90;;
1258;SDS011;619;51.472;6.628;2023-03-22T14:58:42;3.67;;;2.10;;
1258;SDS011;619;51.472;6.628;2023-03-22T15:01:14;5.60;;;2.10;;
1258;SDS011;619;51.472;6.628;2023-03-22T15:03:46;2.90;;;1.70;;
1258;SDS011;619;51.472;6.628;2023-03-22T15:06:17;6.73;;;1.90;;
1258;SDS011;619;51.472;6.628;2023-03-22T15:08:44;4.93;;;1.83;;
1258;SDS011;619;51.472;6.628;2023-03-22T15:11:11;2.90;;;1.70;;
1258;SDS011;619;51.472;6.628;2023-03-22T15:13:41;8.27;;;2.47;;
1258;SDS011;619;51.472;6.628;2023-03-22T15:16:12;4.57;;;2.17;;
1258;SDS011;619;51.472;6.628;2023-03-22T15:18:48;4.70;;;1.60;;
1258;SDS011;619;51.472;6.628;2023-03-22T15:21:15;3.90;;;2.00;;
1258;SDS011;619;51.472;6.628;2023-03-22T15:26:19;4.70;;;1.73;;
1258;SDS011;619;51.472;6.628;2023-03-22T15:29:05;4.80;;;1.90;;
1258;SDS011;619;51.472;6.628;2023-03-22T15:34:19;3.40;;;1.80;;
1258;SDS011;619;51.472;6.628;2023-03-22T15:36:48;3.53;;;1.93;;
1258;SDS011;619;51.472;6.628;2023-03-22T15:39:19;4.50;;;1.90;;
1258;SDS011;619;51.472;6.628;2023-03-22T15:44:38;4.20;;;2.10;;
1258;SDS011;619;51.472;6.628;2023-03-22T15:47:16;4.10;;;1.40;;
1258;SDS011;619;51.472;6.628;2023-03-22T15:49:52;4.47;;;1.80;;
1258;SDS011;619;51.472;6.628;2023-03-22T15:52:21;4.40;;;1.67;;
1258;SDS011;619;51.472;6.628;2023-03-22T16:00:32;2.97;;;2.10;;
1258;SDS011;619;51.472;6.628;2023-03-22T16:05:33;4.50;;;1.63;;
1258;SDS011;619;51.472;6.628;2023-03-22T16:08:01;5.13;;;1.80;;
1258;SDS011;619;51.472;6.628;2023-03-22T16:10:31;4.03;;;1.83;;
1258;SDS011;619;51.472;6.628;2023-03-22T16:13:01;3.93;;;1.50;;
1258;SDS011;619;51.472;6.628;2023-03-22T16:15:38;4.53;;;1.70;;
1258;SDS011;619;51.472;6.628;2023-03-22T16:18:14;3.30;;;1.60;;
1258;SDS011;619;51.472;6.628;2023-03-22T16:20:41;2.30;;;1.50;;
1258;SDS011;619;51.472;6.628;2023-03-22T16:23:13;3.27;;;1.43;;
1258;SDS011;619;51.472;6.628;2023-03-22T16:25:40;2.50;;;1.30;;
1258;SDS011;619;51.472;6.628;2023-03-22T16:28:07;3.80;;;1.97;;
1258;SDS011;619;51.472;6.628;2023-03-22T16:30:34;5.27;;;1.83;;
1258;SDS011;619;51.472;6.628;2023-03-22T16:33:01;3.90;;;1.77;;
1258;SDS011;619;51.472;6.628;2023-03-22T16:35:30;3.67;;;1.63;;
1258;SDS011;619;51.472;6.628;2023-03-22T16:37:57;3.50;;;1.90;;
1258;SDS011;619;51.472;6.628;2023-03-22T16:40:24;4.53;;;2.03;;
1258;SDS011;619;51.472;6.628;2023-03-22T16:42:53;5.33;;;2.90;;
1258;SDS011;619;51.472;6.628;2023-03-22T16:45:27;3.13;;;1.93;;
1258;SDS011;619;51.472;6.628;2023-03-22T16:47:54;4.53;;;2.60;;
1258;SDS011;619;51.472;6.628;2023-03-22T16:50:22;4.07;;;1.63;;
1258;SDS011;619;51.472;6.628;2023-03-22T16:52:49;4.20;;;2.17;;
1258;SDS011;619;51.472;6.628;2023-03-22T16:55:19;3.00;;;1.80;;
1258;SDS011;619;51.472;6.628;2023-03-22T16:57:45;2.87;;;1.30;;
1258;SDS011;619;51.472;6.628;2023-03-22T17:00:14;3.27;;;2.03;;
1258;SDS011;619;51.472;6.628;2023-03-22T17:02:42;2.80;;;1.70;;
1258;SDS011;619;51.472;6.628;2023-03-22T17:05:08;3.70;;;1.83;;
1258;SDS011;619;51.472;6.628;2023-03-22T17:07:37;6.27;;;1.60;;
1258;SDS011;619;51.472;6.628;2023-03-22T17:10:07;5.57;;;2.40;;
1258;SDS011;619;51.472;6.628;2023-03-22T17:12:36;7.77;;;2.50;;
1258;SDS011;619;51.472;6.628;2023-03-22T17:15:03;5.47;;;2.67;;
1258;SDS011;619;51.472;6.628;2023-03-22T17:17:50;1.73;;;1.50;;
1258;SDS011;619;51.472;6.628;2023-03-22T17:20:18;2.90;;;1.70;;
1258;SDS011;619;51.472;6.628;2023-03-22T17:22:45;3.23;;;1.80;;
1258;SDS011;619;51.472;6.628;2023-03-22T17:25:12;8.93;;;1.83;;
1258;SDS011;619;51.472;6.628;2023-03-22T17:27:40;4.50;;;2.17;;
1258;SDS011;619;51.472;6.628;2023-03-22T17:30:09;7.00;;;2.07;;
1258;SDS011;619;51.472;6.628;2023-03-22T17:32:37;3.60;;;1.70;;
1258;SDS011;619;51.472;6.628;2023-03-22T17:35:03;5.27;;;2.03;;
1258;SDS011;619;51.472;6.628;2023-03-22T17:37:30;2.00;;;1.80;;
1258;SDS011;619;51.472;6.628;2023-03-22T17:39:59;3.60;;;1.70;;
1258;SDS011;619;51.472;6.628;2023-03-22T17:42:28;5.30;;;1.60;;
1258;SDS011;619;51.472;6.628;2023-03-22T17:44:53;3.40;;;1.63;;
1258;SDS011;619;51.472;6.628;2023-03-22T17:47:19;2.27;;;1.30;;
1258;SDS011;619;51.472;6.628;2023-03-22T17:49:47;4.50;;;1.60;;
1258;SDS011;619;51.472;6.628;2023-03-22T17:52:18;2.80;;;1.20;;
1258;SDS011;619;51.472;6.628;2023-03-22T17:54:43;3.00;;;1.60;;
1258;SDS011;619;51.472;6.628;2023-03-22T17:57:09;2.23;;;1.80;;
1258;SDS011;619;51.472;6.628;2023-03-22T17:59:35;5.30;;;1.50;;
1258;SDS011;619;51.472;6.628;2023-03-22T18:02:03;2.67;;;1.70;;
1258;SDS011;619;51.472;6.628;2023-03-22T18:04:29;3.50;;;1.67;;
1258;SDS011;619;51.472;6.628;2023-03-22T18:06:57;3.43;;;2.10;;
1258;SDS011;619;51.472;6.628;2023-03-22T18:09:23;5.73;;;2.20;;
1258;SDS011;619;51.472;6.628;2023-03-22T18:11:49;7.77;;;2.80;;